createdAt,value
2019-03-08T00:00:58.196Z,984.86
2019-03-08T00:01:58.216Z,984.86
2019-03-08T00:02:58.150Z,984.99
2019-03-08T00:03:58.127Z,984.97
2019-03-08T00:04:58.099Z,984.94
2019-03-08T00:05:58.077Z,985.02
2019-03-08T00:06:58.080Z,985.03
2019-03-08T00:07:58.037Z,985.05
2019-03-08T00:08:58.015Z,984.97
2019-03-08T00:09:57.990Z,985.05
2019-03-08T00:10:57.965Z,985.11
2019-03-08T00:11:57.941Z,985.10
2019-03-08T00:12:57.920Z,985.10
2019-03-08T00:13:57.900Z,985.18
2019-03-08T00:14:57.871Z,985.03
2019-03-08T00:15:57.855Z,985.21
2019-03-08T00:16:57.861Z,985.06
2019-03-08T00:17:57.812Z,985.14
2019-03-08T00:18:57.785Z,985.17
2019-03-08T00:19:57.765Z,985.18
2019-03-08T00:20:57.742Z,985.21
2019-03-08T00:21:57.713Z,985.17
2019-03-08T00:22:57.692Z,985.22
2019-03-08T00:23:57.672Z,985.27
2019-03-08T00:24:57.643Z,985.32
2019-03-08T00:25:57.628Z,985.28
2019-03-08T00:26:57.598Z,985.21
2019-03-08T00:27:57.579Z,985.22
2019-03-08T00:28:57.563Z,985.17
2019-03-08T00:29:57.537Z,985.21
2019-03-08T00:30:57.509Z,985.26
2019-03-08T00:31:57.486Z,985.35
2019-03-08T00:32:57.467Z,985.22
2019-03-08T00:33:57.441Z,985.23
2019-03-08T00:34:57.418Z,985.22
2019-03-08T00:35:57.402Z,985.24
2019-03-08T00:36:57.373Z,985.27
2019-03-08T00:37:57.357Z,985.29
2019-03-08T00:38:57.329Z,985.28
2019-03-08T00:39:57.311Z,985.32
2019-03-08T00:40:57.293Z,985.43
2019-03-08T00:41:57.265Z,985.40
2019-03-08T00:42:57.242Z,985.38
2019-03-08T00:43:57.221Z,985.39
2019-03-08T00:44:57.201Z,985.42
2019-03-08T00:45:57.171Z,985.45
2019-03-08T00:46:57.170Z,985.52
2019-03-08T00:47:57.127Z,985.45
2019-03-08T00:48:57.107Z,985.43
2019-03-08T00:49:57.084Z,985.43
2019-03-08T00:50:57.055Z,985.46
2019-03-08T00:51:57.042Z,985.57
2019-03-08T00:52:57.011Z,985.58
2019-03-08T00:53:56.995Z,985.54
2019-03-08T00:54:56.972Z,985.51
2019-03-08T00:55:56.945Z,985.51
2019-03-08T00:56:56.928Z,985.52
2019-03-08T00:57:56.900Z,985.48
2019-03-08T00:58:56.878Z,985.54
2019-03-08T00:59:56.860Z,985.58
2019-03-08T01:00:56.828Z,985.52
2019-03-08T01:01:56.824Z,985.53
2019-03-08T01:02:56.788Z,985.53
2019-03-08T01:03:56.767Z,985.55
2019-03-08T01:04:56.746Z,985.62
2019-03-08T01:05:56.717Z,985.65
2019-03-08T01:06:56.699Z,985.57
2019-03-08T01:07:56.675Z,985.65
2019-03-08T01:08:56.649Z,985.62
2019-03-08T01:09:56.631Z,985.65
2019-03-08T01:10:56.608Z,985.65
2019-03-08T01:11:56.589Z,985.57
2019-03-08T01:12:56.564Z,985.62
2019-03-08T01:13:56.541Z,985.54
2019-03-08T01:14:56.512Z,985.63
2019-03-08T01:15:56.493Z,985.64
2019-03-08T01:16:56.471Z,985.67
2019-03-08T01:17:56.442Z,985.72
2019-03-08T01:18:56.428Z,985.66
2019-03-08T01:19:56.401Z,985.67
2019-03-08T01:20:56.376Z,985.69
2019-03-08T01:21:56.360Z,985.70
2019-03-08T01:22:56.332Z,985.71
2019-03-08T01:23:56.315Z,985.74
2019-03-08T01:24:56.287Z,985.74
2019-03-08T01:25:56.272Z,985.74
2019-03-08T01:26:56.242Z,985.79
2019-03-08T01:27:56.221Z,985.79
2019-03-08T01:28:56.201Z,985.86
2019-03-08T01:29:56.179Z,985.71
2019-03-08T01:30:56.150Z,985.71
2019-03-08T01:31:56.128Z,985.80
2019-03-08T01:32:56.106Z,985.78
2019-03-08T01:33:56.090Z,985.74
2019-03-08T01:34:56.061Z,985.74
2019-03-08T01:35:56.045Z,985.68
2019-03-08T01:36:56.020Z,985.78
2019-03-08T01:37:55.995Z,985.72
2019-03-08T01:38:55.973Z,985.78
2019-03-08T01:39:55.963Z,985.81
2019-03-08T01:40:55.929Z,985.80
2019-03-08T01:41:55.905Z,985.91
2019-03-08T01:42:55.883Z,985.84
2019-03-08T01:43:55.860Z,985.79
2019-03-08T01:44:55.845Z,985.81
2019-03-08T01:45:55.815Z,985.77
2019-03-08T01:46:55.809Z,985.93
2019-03-08T01:47:55.773Z,985.78
2019-03-08T01:48:55.761Z,985.89
2019-03-08T01:50:16.780Z,985.89
2019-03-08T01:50:55.706Z,985.75
2019-03-08T01:51:55.680Z,985.79
2019-03-08T01:52:55.661Z,985.79
2019-03-08T01:53:55.637Z,985.72
2019-03-08T01:54:55.613Z,985.79
2019-03-08T01:55:55.592Z,985.78
2019-03-08T01:56:55.567Z,985.70
2019-03-08T01:57:55.548Z,985.83
2019-03-08T01:58:55.524Z,985.67
2019-03-08T01:59:55.501Z,985.75
2019-03-08T02:00:55.484Z,985.81
2019-03-08T02:01:55.462Z,985.79
2019-03-08T02:02:55.430Z,985.84
2019-03-08T02:03:55.407Z,985.95
2019-03-08T02:04:55.385Z,985.87
2019-03-08T02:05:55.365Z,985.86
2019-03-08T02:06:55.343Z,985.88
2019-03-08T02:07:55.324Z,985.92
2019-03-08T02:08:55.301Z,985.96
2019-03-08T02:09:55.273Z,985.93
2019-03-08T02:10:55.250Z,985.85
2019-03-08T02:11:55.234Z,985.92
2019-03-08T02:12:55.202Z,985.93
2019-03-08T02:13:55.182Z,985.98
2019-03-08T02:14:55.164Z,985.89
2019-03-08T02:15:55.141Z,985.87
2019-03-08T02:16:55.119Z,985.88
2019-03-08T02:17:55.090Z,985.88
2019-03-08T02:18:55.068Z,985.91
2019-03-08T02:19:55.045Z,985.94
2019-03-08T02:20:55.024Z,985.98
2019-03-08T02:21:55.000Z,986.08
2019-03-08T02:22:54.983Z,986.06
2019-03-08T02:23:54.955Z,985.97
2019-03-08T02:24:54.934Z,986.04
2019-03-08T02:25:54.907Z,985.99
2019-03-08T02:26:54.894Z,986.08
2019-03-08T02:27:54.865Z,986.15
2019-03-08T02:28:54.845Z,986.14
2019-03-08T02:29:54.816Z,986.16
2019-03-08T02:30:54.793Z,986.07
2019-03-08T02:31:54.774Z,986.12
2019-03-08T02:32:54.745Z,986.16
2019-03-08T02:33:54.741Z,986.15
2019-03-08T02:34:54.700Z,986.18
2019-03-08T02:35:54.685Z,986.16
2019-03-08T02:36:54.659Z,986.18
2019-03-08T02:37:54.638Z,986.24
2019-03-08T02:38:54.615Z,986.15
2019-03-08T02:39:54.599Z,986.18
2019-03-08T02:40:54.563Z,986.20
2019-03-08T02:41:54.544Z,986.26
2019-03-08T02:42:54.519Z,986.25
2019-03-08T02:43:54.514Z,986.25
2019-03-08T02:44:54.479Z,986.21
2019-03-08T02:45:54.458Z,986.27
2019-03-08T02:46:54.429Z,986.21
2019-03-08T02:47:54.410Z,986.25
2019-03-08T02:48:54.381Z,986.22
2019-03-08T02:49:54.362Z,986.29
2019-03-08T02:50:54.336Z,986.20
2019-03-08T02:51:54.320Z,986.36
2019-03-08T02:52:54.295Z,986.26
2019-03-08T02:53:54.276Z,986.19
2019-03-08T02:54:54.250Z,986.36
2019-03-08T02:55:54.234Z,986.38
2019-03-08T02:56:54.206Z,986.33
2019-03-08T02:57:54.183Z,986.36
2019-03-08T02:58:54.155Z,986.40
2019-03-08T02:59:54.139Z,986.34
2019-03-08T03:00:54.108Z,986.40
2019-03-08T03:01:54.084Z,986.39
2019-03-08T03:02:54.069Z,986.44
2019-03-08T03:03:54.046Z,986.43
2019-03-08T03:04:54.018Z,986.46
2019-03-08T03:05:53.995Z,986.42
2019-03-08T03:06:53.980Z,986.44
2019-03-08T03:07:53.954Z,986.44
2019-03-08T03:08:53.932Z,986.40
2019-03-08T03:09:53.903Z,986.48
2019-03-08T03:10:53.883Z,986.46
2019-03-08T03:11:53.861Z,986.42
2019-03-08T03:12:53.842Z,986.51
2019-03-08T03:13:53.818Z,986.52
2019-03-08T03:14:53.790Z,986.50
2019-03-08T03:15:53.767Z,986.47
2019-03-08T03:16:53.747Z,986.52
2019-03-08T03:17:53.719Z,986.51
2019-03-08T03:18:53.697Z,986.52
2019-03-08T03:19:53.678Z,986.54
2019-03-08T03:20:53.648Z,986.49
2019-03-08T03:21:53.628Z,986.44
2019-03-08T03:22:53.612Z,986.57
2019-03-08T03:23:53.583Z,986.48
2019-03-08T03:24:53.564Z,986.54
2019-03-08T03:25:53.538Z,986.46
2019-03-08T03:26:53.512Z,986.48
2019-03-08T03:27:53.490Z,986.49
2019-03-08T03:28:53.474Z,986.49
2019-03-08T03:29:53.451Z,986.56
2019-03-08T03:30:53.505Z,986.51
2019-03-08T03:31:53.401Z,986.45
2019-03-08T03:32:53.384Z,986.48
2019-03-08T03:33:53.352Z,986.58
2019-03-08T03:34:53.351Z,986.55
2019-03-08T03:35:53.307Z,986.52
2019-03-08T03:36:53.288Z,986.62
2019-03-08T03:37:53.280Z,986.60
2019-03-08T03:38:53.243Z,986.63
2019-03-08T03:39:53.222Z,986.65
2019-03-08T03:40:53.190Z,986.71
2019-03-08T03:41:53.171Z,986.63
2019-03-08T03:42:53.146Z,986.57
2019-03-08T03:43:53.122Z,986.67
2019-03-08T03:44:53.096Z,986.66
2019-03-08T03:45:53.075Z,986.68
2019-03-08T03:46:53.058Z,986.77
2019-03-08T03:47:53.030Z,986.65
2019-03-08T03:48:53.004Z,986.70
2019-03-08T03:49:52.982Z,986.67
2019-03-08T03:50:52.960Z,986.61
2019-03-08T03:51:52.937Z,986.68
2019-03-08T03:52:52.911Z,986.71
2019-03-08T03:53:52.890Z,986.71
2019-03-08T03:54:52.889Z,986.74
2019-03-08T03:55:52.848Z,986.63
2019-03-08T03:56:53.595Z,986.70
2019-03-08T03:57:52.796Z,986.63
2019-03-08T03:58:52.780Z,986.65
2019-03-08T03:59:52.751Z,986.56
2019-03-08T04:00:52.735Z,986.57
2019-03-08T04:01:52.731Z,986.57
2019-03-08T04:02:52.681Z,986.71
2019-03-08T04:03:52.665Z,986.62
2019-03-08T04:04:52.640Z,986.58
2019-03-08T04:05:52.614Z,986.62
2019-03-08T04:06:52.587Z,986.65
2019-03-08T04:07:52.571Z,986.73
2019-03-08T04:08:52.549Z,986.63
2019-03-08T04:09:52.527Z,986.65
2019-03-08T04:10:52.494Z,986.81
2019-03-08T04:11:52.498Z,986.77
2019-03-08T04:12:52.453Z,986.72
2019-03-08T04:13:52.432Z,986.73
2019-03-08T04:14:52.410Z,986.76
2019-03-08T04:15:52.384Z,986.78
2019-03-08T04:16:52.355Z,986.83
2019-03-08T04:17:52.336Z,986.85
2019-03-08T04:18:52.311Z,986.84
2019-03-08T04:19:52.291Z,986.91
2019-03-08T04:20:52.263Z,986.88
2019-03-08T04:21:52.246Z,986.88
2019-03-08T04:22:52.220Z,986.89
2019-03-08T04:23:52.193Z,986.91
2019-03-08T04:24:52.175Z,986.87
2019-03-08T04:25:52.148Z,986.83
2019-03-08T04:26:52.127Z,986.88
2019-03-08T04:27:52.107Z,986.86
2019-03-08T04:28:52.074Z,986.85
2019-03-08T04:29:52.055Z,986.86
2019-03-08T04:30:52.030Z,986.93
2019-03-08T04:31:52.007Z,986.88
2019-03-08T04:32:51.984Z,986.93
2019-03-08T04:33:51.959Z,986.93
2019-03-08T04:34:51.943Z,986.88
2019-03-08T04:35:51.914Z,986.87
2019-03-08T04:36:51.889Z,986.95
2019-03-08T04:37:51.882Z,987.00
2019-03-08T04:38:51.858Z,986.88
2019-03-08T04:39:51.826Z,986.93
2019-03-08T04:40:51.803Z,986.90
2019-03-08T04:41:51.775Z,986.93
2019-03-08T04:42:51.755Z,986.96
2019-03-08T04:43:51.726Z,986.90
2019-03-08T04:44:51.704Z,986.99
2019-03-08T04:45:51.678Z,986.87
2019-03-08T04:46:51.656Z,986.98
2019-03-08T04:47:51.635Z,986.97
2019-03-08T04:48:51.610Z,986.99
2019-03-08T04:49:51.589Z,986.92
2019-03-08T04:50:51.565Z,986.87
2019-03-08T04:51:51.545Z,986.86
2019-03-08T04:52:51.525Z,986.89
2019-03-08T04:53:51.494Z,986.84
2019-03-08T04:54:51.474Z,986.95
2019-03-08T04:55:51.452Z,987.01
2019-03-08T04:56:51.422Z,986.98
2019-03-08T04:57:51.402Z,987.04
2019-03-08T04:58:51.381Z,986.96
2019-03-08T04:59:51.355Z,986.99
2019-03-08T05:00:51.336Z,986.92
2019-03-08T05:01:51.307Z,986.98
2019-03-08T05:02:51.291Z,987.02
2019-03-08T05:03:51.265Z,987.01
2019-03-08T05:04:51.243Z,987.03
2019-03-08T05:05:51.218Z,987.05
2019-03-08T05:06:51.193Z,987.05
2019-03-08T05:07:51.167Z,987.01
2019-03-08T05:08:51.141Z,987.05
2019-03-08T05:09:51.119Z,987.04
2019-03-08T05:10:51.100Z,987.04
2019-03-08T05:11:51.074Z,987.06
2019-03-08T05:12:51.048Z,987.15
2019-03-08T05:13:51.025Z,987.06
2019-03-08T05:14:51.014Z,987.17
2019-03-08T05:15:50.985Z,987.20
2019-03-08T05:16:50.955Z,987.11
2019-03-08T05:17:50.933Z,987.12
2019-03-08T05:18:50.925Z,987.15
2019-03-08T05:19:50.892Z,987.17
2019-03-08T05:20:50.869Z,987.17
2019-03-08T05:21:50.843Z,987.24
2019-03-08T05:22:50.828Z,987.25
2019-03-08T05:23:50.794Z,987.28
2019-03-08T05:24:50.769Z,987.34
2019-03-08T05:25:50.746Z,987.30
2019-03-08T05:26:50.730Z,987.36
2019-03-08T05:27:50.701Z,987.33
2019-03-08T05:28:50.672Z,987.35
2019-03-08T05:29:50.654Z,987.34
2019-03-08T05:30:50.627Z,987.36
2019-03-08T05:31:50.605Z,987.47
2019-03-08T05:32:50.586Z,987.41
2019-03-08T05:33:50.560Z,987.43
2019-03-08T05:34:50.540Z,987.47
2019-03-08T05:35:50.514Z,987.41
2019-03-08T05:36:50.499Z,987.50
2019-03-08T05:37:50.477Z,987.50
2019-03-08T05:38:50.441Z,987.57
2019-03-08T05:39:50.421Z,987.55
2019-03-08T05:40:50.396Z,987.56
2019-03-08T05:41:50.372Z,987.55
2019-03-08T05:42:50.349Z,987.58
2019-03-08T05:43:50.327Z,987.64
2019-03-08T05:44:50.305Z,987.69
2019-03-08T05:45:50.282Z,987.72
2019-03-08T05:46:50.280Z,987.81
2019-03-08T05:47:50.239Z,987.69
2019-03-08T05:48:50.210Z,987.79
2019-03-08T05:49:50.194Z,987.83
2019-03-08T05:50:50.166Z,987.84
2019-03-08T05:51:50.140Z,987.94
2019-03-08T05:52:50.123Z,987.87
2019-03-08T05:53:50.105Z,987.86
2019-03-08T05:54:50.076Z,987.88
2019-03-08T05:55:50.054Z,987.91
2019-03-08T05:56:50.029Z,987.90
2019-03-08T05:57:50.016Z,987.95
2019-03-08T05:58:49.978Z,987.91
2019-03-08T05:59:49.956Z,987.97
2019-03-08T06:00:49.930Z,988.03
2019-03-08T06:01:49.920Z,988.03
2019-03-08T06:02:49.905Z,988.05
2019-03-08T06:03:49.863Z,988.15
2019-03-08T06:04:49.838Z,988.17
2019-03-08T06:05:49.816Z,988.19
2019-03-08T06:06:49.797Z,988.29
2019-03-08T06:07:49.778Z,988.28
2019-03-08T06:08:49.755Z,988.27
2019-03-08T06:09:49.725Z,988.27
2019-03-08T06:10:49.707Z,988.32
2019-03-08T06:11:49.678Z,988.31
2019-03-08T06:12:49.673Z,988.29
2019-03-08T06:13:49.636Z,988.06
2019-03-08T06:14:49.618Z,988.33
2019-03-08T06:15:49.596Z,988.39
2019-03-08T06:16:49.563Z,988.44
2019-03-08T06:17:49.541Z,988.37
2019-03-08T06:18:49.525Z,988.46
2019-03-08T06:19:49.541Z,988.52
2019-03-08T06:20:49.480Z,988.58
2019-03-08T06:21:49.452Z,988.58
2019-03-08T06:22:49.435Z,988.55
2019-03-08T06:23:49.411Z,988.61
2019-03-08T06:24:49.378Z,988.55
2019-03-08T06:25:49.359Z,988.66
2019-03-08T06:26:49.362Z,988.57
2019-03-08T06:27:49.311Z,988.60
2019-03-08T06:28:49.292Z,988.63
2019-03-08T06:29:49.281Z,988.68
2019-03-08T06:30:49.241Z,988.65
2019-03-08T06:31:49.219Z,988.69
2019-03-08T06:32:49.203Z,988.62
2019-03-08T06:33:49.174Z,988.68
2019-03-08T06:34:49.149Z,988.76
2019-03-08T06:35:49.127Z,988.72
2019-03-08T06:36:49.111Z,988.74
2019-03-08T06:37:49.079Z,988.71
2019-03-08T06:38:49.062Z,988.71
2019-03-08T06:39:49.043Z,988.73
2019-03-08T06:40:49.020Z,988.83
2019-03-08T06:41:48.997Z,988.92
2019-03-08T06:42:48.968Z,988.84
2019-03-08T06:43:48.946Z,988.86
2019-03-08T06:44:48.927Z,988.90
2019-03-08T06:45:48.904Z,988.86
2019-03-08T06:46:48.883Z,988.86
2019-03-08T06:47:48.868Z,988.90
2019-03-08T06:48:48.828Z,988.89
2019-03-08T06:49:48.812Z,988.99
2019-03-08T06:50:48.792Z,989.00
2019-03-08T06:51:48.763Z,989.03
2019-03-08T06:52:48.739Z,989.02
2019-03-08T06:53:48.747Z,989.16
2019-03-08T06:54:48.694Z,989.05
2019-03-08T06:55:48.679Z,989.13
2019-03-08T06:56:48.651Z,989.11
2019-03-08T06:57:48.626Z,989.12
2019-03-08T06:58:48.607Z,989.21
2019-03-08T06:59:48.581Z,989.12
2019-03-08T07:00:48.556Z,989.19
2019-03-08T07:01:48.543Z,989.27
2019-03-08T07:02:48.517Z,989.16
2019-03-08T07:03:48.489Z,989.16
2019-03-08T07:04:48.473Z,989.17
2019-03-08T07:05:48.447Z,989.17
2019-03-08T07:06:48.423Z,989.23
2019-03-08T07:07:48.427Z,989.23
2019-03-08T07:08:48.377Z,989.35
2019-03-08T07:09:48.353Z,989.23
2019-03-08T07:10:48.343Z,989.24
2019-03-08T07:11:48.311Z,989.36
2019-03-08T07:12:48.294Z,989.40
2019-03-08T07:13:48.264Z,989.42
2019-03-08T07:14:48.247Z,989.43
2019-03-08T07:15:48.227Z,989.42
2019-03-08T07:16:48.196Z,989.48
2019-03-08T07:17:48.174Z,989.50
2019-03-08T07:18:48.154Z,989.52
2019-03-08T07:19:48.129Z,989.57
2019-03-08T07:20:48.114Z,989.55
2019-03-08T07:21:48.091Z,989.61
2019-03-08T07:22:48.062Z,989.59
2019-03-08T07:23:48.046Z,989.62
2019-03-08T07:24:48.038Z,989.66
2019-03-08T07:25:51.834Z,989.66
2019-03-08T07:26:47.988Z,989.62
2019-03-08T07:27:47.949Z,989.68
2019-03-08T07:28:47.933Z,989.73
2019-03-08T07:29:47.907Z,989.66
2019-03-08T07:30:57.280Z,989.71
2019-03-08T07:31:47.863Z,989.82
2019-03-08T07:32:47.840Z,989.78
2019-03-08T07:33:53.190Z,989.84
2019-03-08T07:34:47.821Z,989.89
2019-03-08T07:35:47.775Z,989.87
2019-03-08T07:36:47.753Z,989.89
2019-03-08T07:37:47.731Z,989.90
2019-03-08T07:38:47.708Z,989.94
2019-03-08T07:39:47.686Z,990.02
2019-03-08T07:40:47.671Z,990.04
2019-03-08T07:41:47.642Z,990.10
2019-03-08T07:42:47.634Z,990.13
2019-03-08T07:43:47.608Z,990.11
2019-03-08T07:44:47.579Z,990.15
2019-03-08T07:45:47.563Z,990.12
2019-03-08T07:46:47.541Z,990.20
2019-03-08T07:47:47.515Z,990.13
2019-03-08T07:48:47.496Z,990.17
2019-03-08T07:49:47.477Z,990.21
2019-03-08T07:50:47.449Z,990.23
2019-03-08T07:51:47.429Z,990.31
2019-03-08T07:52:47.413Z,990.32
2019-03-08T07:53:47.384Z,990.28
2019-03-08T07:54:52.974Z,990.33
2019-03-08T07:55:47.349Z,990.40
2019-03-08T07:56:47.327Z,990.38
2019-03-08T07:57:47.298Z,990.37
2019-03-08T07:58:47.290Z,990.45
2019-03-08T07:59:53.791Z,990.52
2019-03-08T08:00:47.234Z,990.54
2019-03-08T08:01:47.215Z,990.50
2019-03-08T08:02:47.196Z,990.56
2019-03-08T08:03:47.177Z,990.52
2019-03-08T08:04:47.149Z,990.51
2019-03-08T08:05:47.135Z,990.57
2019-03-08T08:06:47.116Z,990.56
2019-03-08T08:07:47.090Z,990.60
2019-03-08T08:08:51.537Z,990.56
2019-03-08T08:09:47.040Z,990.62
2019-03-08T08:10:47.023Z,990.60
2019-03-08T08:11:47.011Z,990.57
2019-03-08T08:12:46.982Z,990.69
2019-03-08T08:13:46.963Z,990.71
2019-03-08T08:14:46.934Z,990.71
2019-03-08T08:15:46.918Z,990.73
2019-03-08T08:16:46.890Z,990.77
2019-03-08T08:17:46.880Z,990.64
2019-03-08T08:18:46.854Z,990.75
2019-03-08T08:19:46.835Z,990.79
2019-03-08T08:20:46.804Z,990.78
2019-03-08T08:21:46.781Z,990.85
2019-03-08T08:22:46.762Z,990.78
2019-03-08T08:23:46.746Z,990.77
2019-03-08T08:24:46.717Z,990.79
2019-03-08T08:25:46.702Z,990.76
2019-03-08T08:26:46.685Z,990.76
2019-03-08T08:27:46.656Z,990.73
2019-03-08T08:28:49.945Z,990.73
2019-03-08T08:29:46.611Z,990.80
2019-03-08T08:30:46.591Z,990.79
2019-03-08T08:31:46.570Z,990.79
2019-03-08T08:32:46.553Z,990.85
2019-03-08T08:33:46.527Z,990.87
2019-03-08T08:34:46.559Z,990.81
2019-03-08T08:35:46.489Z,990.82
2019-03-08T08:36:46.466Z,990.75
2019-03-08T08:37:46.450Z,990.83
2019-03-08T08:38:46.420Z,990.85
2019-03-08T08:39:46.401Z,990.88
2019-03-08T08:40:46.378Z,990.83
2019-03-08T08:41:46.356Z,990.82
2019-03-08T08:42:46.340Z,990.81
2019-03-08T08:43:46.314Z,990.93
2019-03-08T08:44:46.300Z,990.80
2019-03-08T08:45:46.272Z,990.92
2019-03-08T08:46:46.259Z,990.80
2019-03-08T08:47:46.288Z,990.86
2019-03-08T08:48:46.211Z,990.89
2019-03-08T08:49:54.326Z,990.86
2019-03-08T08:50:46.177Z,990.90
2019-03-08T08:51:46.156Z,990.87
2019-03-08T08:52:46.128Z,990.97
2019-03-08T08:53:46.109Z,990.91
2019-03-08T08:54:46.087Z,991.00
2019-03-08T08:55:46.070Z,991.00
2019-03-08T08:56:46.044Z,991.05
2019-03-08T08:57:46.037Z,990.84
2019-03-08T08:58:46.011Z,990.97
2019-03-08T08:59:45.992Z,990.92
2019-03-08T09:00:45.963Z,991.05
2019-03-08T09:01:45.950Z,990.96
2019-03-08T09:02:45.924Z,990.93
2019-03-08T09:03:45.909Z,991.04
2019-03-08T09:04:45.884Z,991.03
2019-03-08T09:05:45.868Z,991.06
2019-03-08T09:06:45.841Z,991.01
2019-03-08T09:07:45.838Z,991.12
2019-03-08T09:08:47.393Z,991.08
2019-03-08T09:09:45.780Z,991.06
2019-03-08T09:10:45.781Z,991.09
2019-03-08T09:11:52.130Z,991.10
2019-03-08T09:12:45.721Z,991.15
2019-03-08T09:13:45.698Z,991.26
2019-03-08T09:14:47.060Z,991.21
2019-03-08T09:15:45.659Z,991.15
2019-03-08T09:16:45.643Z,991.21
2019-03-08T09:17:45.617Z,991.25
2019-03-08T09:18:45.609Z,991.28
2019-03-08T09:19:45.593Z,991.42
2019-03-08T09:20:45.556Z,991.20
2019-03-08T09:21:45.537Z,991.25
2019-03-08T09:22:45.521Z,991.28
2019-03-08T09:23:45.493Z,991.27
2019-03-08T09:24:45.473Z,991.32
2019-03-08T09:25:45.460Z,991.29
2019-03-08T09:26:45.437Z,991.39
2019-03-08T09:27:45.417Z,991.39
2019-03-08T09:28:45.389Z,991.30
2019-03-08T09:29:45.376Z,991.39
2019-03-08T09:30:45.355Z,991.34
2019-03-08T09:31:45.335Z,991.33
2019-03-08T09:32:45.325Z,991.42
2019-03-08T09:33:45.284Z,991.50
2019-03-08T09:34:45.302Z,991.46
2019-03-08T09:35:45.240Z,991.50
2019-03-08T09:36:45.227Z,991.41
2019-03-08T09:37:45.205Z,991.43
2019-03-08T09:38:45.185Z,991.51
2019-03-08T09:39:45.154Z,991.44
2019-03-08T09:40:45.135Z,991.49
2019-03-08T09:41:45.113Z,991.52
2019-03-08T09:42:45.097Z,991.55
2019-03-08T09:43:45.075Z,991.59
2019-03-08T09:44:45.054Z,991.56
2019-03-08T09:45:45.023Z,991.53
2019-03-08T09:46:45.011Z,991.60
2019-03-08T09:47:44.982Z,991.63
2019-03-08T09:48:48.678Z,991.66
2019-03-08T09:49:44.940Z,991.71
2019-03-08T09:50:44.953Z,991.64
2019-03-08T09:51:44.892Z,991.68
2019-03-08T09:52:44.883Z,991.68
2019-03-08T09:53:44.855Z,991.71
2019-03-08T09:54:44.825Z,991.74
2019-03-08T09:55:44.809Z,991.74
2019-03-08T09:56:44.787Z,991.71
2019-03-08T09:57:44.758Z,991.80
2019-03-08T09:58:44.736Z,991.85
2019-03-08T09:59:44.720Z,991.88
2019-03-08T10:00:44.698Z,991.91
2019-03-08T10:01:44.674Z,991.94
2019-03-08T10:02:44.652Z,991.96
2019-03-08T10:03:46.448Z,992.00
2019-03-08T10:04:44.602Z,992.00
2019-03-08T10:05:44.586Z,992.02
2019-03-08T10:06:44.557Z,992.01
2019-03-08T10:07:44.541Z,992.03
2019-03-08T10:08:44.519Z,991.97
2019-03-08T10:09:44.487Z,992.03
2019-03-08T10:10:44.474Z,992.09
2019-03-08T10:11:44.448Z,992.09
2019-03-08T10:12:44.448Z,992.05
2019-03-08T10:13:44.407Z,992.10
2019-03-08T10:14:44.375Z,992.12
2019-03-08T10:15:44.353Z,992.06
2019-03-08T10:16:44.330Z,992.12
2019-03-08T10:17:44.312Z,992.08
2019-03-08T10:18:44.289Z,992.14
2019-03-08T10:19:44.268Z,992.18
2019-03-08T10:20:44.240Z,992.16
2019-03-08T10:21:44.214Z,992.22
2019-03-08T10:22:44.195Z,992.15
2019-03-08T10:23:44.176Z,992.22
2019-03-08T10:24:44.154Z,992.25
2019-03-08T10:25:44.124Z,992.23
2019-03-08T10:26:44.102Z,992.34
2019-03-08T10:27:44.102Z,992.24
2019-03-08T10:28:44.061Z,992.29
2019-03-08T10:29:44.039Z,992.31
2019-03-08T10:30:44.017Z,992.34
2019-03-08T10:31:43.988Z,992.32
2019-03-08T10:32:43.969Z,992.40
2019-03-08T10:33:46.772Z,992.47
2019-03-08T10:34:43.924Z,992.39
2019-03-08T10:35:43.901Z,992.48
2019-03-08T10:36:43.873Z,992.54
2019-03-08T10:37:43.867Z,992.55
2019-03-08T10:38:43.834Z,992.50
2019-03-08T10:39:43.811Z,992.57
2019-03-08T10:40:43.789Z,992.65
2019-03-08T10:41:43.762Z,992.61
2019-03-08T10:42:43.741Z,992.60
2019-03-08T10:43:43.725Z,992.69
2019-03-08T10:44:43.690Z,992.65
2019-03-08T10:45:43.671Z,992.59
2019-03-08T10:46:43.651Z,992.67
2019-03-08T10:47:43.654Z,992.62
2019-03-08T10:48:43.605Z,992.59
2019-03-08T10:49:43.583Z,992.58
2019-03-08T10:50:43.560Z,992.66
2019-03-08T10:51:43.534Z,992.73
2019-03-08T10:52:43.510Z,992.76
2019-03-08T10:53:43.496Z,992.74
2019-03-08T10:54:43.465Z,992.78
2019-03-08T10:55:43.442Z,992.81
2019-03-08T10:56:43.420Z,992.81
2019-03-08T10:57:43.399Z,992.86
2019-03-08T10:58:43.376Z,992.88
2019-03-08T10:59:43.354Z,992.89
2019-03-08T11:00:43.333Z,992.89
2019-03-08T11:01:43.311Z,992.89
2019-03-08T11:02:43.285Z,992.95
2019-03-08T11:03:43.263Z,992.94
2019-03-08T11:04:43.244Z,993.00
2019-03-08T11:05:43.221Z,992.96
2019-03-08T11:06:43.195Z,992.94
2019-03-08T11:07:43.179Z,992.93
2019-03-08T11:08:43.157Z,992.93
2019-03-08T11:09:43.134Z,992.90
2019-03-08T11:10:43.106Z,992.98
2019-03-08T11:11:43.087Z,992.98
2019-03-08T11:12:43.064Z,993.00
2019-03-08T11:13:43.664Z,992.97
2019-03-08T11:14:43.025Z,993.02
2019-03-08T11:15:42.996Z,992.99
2019-03-08T11:16:43.476Z,993.03
2019-03-08T11:17:50.493Z,992.97
2019-03-08T11:18:42.936Z,993.06
2019-03-08T11:19:42.910Z,993.07
2019-03-08T11:20:42.890Z,993.05
2019-03-08T11:21:42.873Z,993.11
2019-03-08T11:22:42.869Z,993.11
2019-03-08T11:23:42.829Z,993.10
2019-03-08T11:24:42.806Z,993.11
2019-03-08T11:25:42.791Z,993.07
2019-03-08T11:26:42.758Z,993.11
2019-03-08T11:27:42.751Z,993.13
2019-03-08T11:28:42.714Z,993.06
2019-03-08T11:29:42.694Z,993.12
2019-03-08T11:30:42.677Z,993.14
2019-03-08T11:31:42.652Z,993.15
2019-03-08T11:32:42.661Z,993.13
2019-03-08T11:33:42.608Z,993.17
2019-03-08T11:34:51.785Z,993.15
2019-03-08T11:35:42.570Z,993.19
2019-03-08T11:36:42.553Z,993.19
2019-03-08T11:37:42.525Z,993.20
2019-03-08T11:38:42.506Z,993.23
2019-03-08T11:39:42.477Z,993.25
2019-03-08T11:40:42.454Z,993.27
2019-03-08T11:41:42.441Z,993.27
2019-03-08T11:42:42.416Z,993.32
2019-03-08T11:43:42.393Z,993.32
2019-03-08T11:44:42.368Z,993.43
2019-03-08T11:45:42.343Z,993.42
2019-03-08T11:46:42.320Z,993.37
2019-03-08T11:47:42.308Z,993.38
2019-03-08T11:48:44.274Z,993.36
2019-03-08T11:49:42.585Z,993.42
2019-03-08T11:50:42.231Z,993.39
2019-03-08T11:51:42.215Z,993.39
2019-03-08T11:52:42.199Z,993.39
2019-03-08T11:53:42.171Z,993.38
2019-03-08T11:54:42.142Z,993.45
2019-03-08T11:55:42.124Z,993.37
2019-03-08T11:56:42.098Z,993.34
2019-03-08T11:57:42.081Z,993.37
2019-03-08T11:58:42.058Z,993.36
2019-03-08T11:59:42.038Z,993.48
2019-03-08T12:00:42.005Z,993.48
2019-03-08T12:01:41.986Z,993.45
2019-03-08T12:02:41.963Z,993.50
2019-03-08T12:03:41.949Z,993.51
2019-03-08T12:04:41.925Z,993.55
2019-03-08T12:05:41.897Z,993.56
2019-03-08T12:06:41.877Z,993.56
2019-03-08T12:07:42.012Z,993.53
2019-03-08T12:08:41.831Z,993.49
2019-03-08T12:09:41.810Z,993.54
2019-03-08T12:10:41.786Z,993.54
2019-03-08T12:11:41.769Z,993.52
2019-03-08T12:12:41.746Z,993.58
2019-03-08T12:13:41.729Z,993.61
2019-03-08T12:14:41.709Z,993.61
2019-03-08T12:15:41.684Z,993.61
2019-03-08T12:16:41.658Z,993.65
2019-03-08T12:17:41.640Z,993.63
2019-03-08T12:18:41.618Z,993.67
2019-03-08T12:19:41.598Z,993.64
2019-03-08T12:20:41.603Z,993.64
2019-03-08T12:21:41.557Z,993.66
2019-03-08T12:22:41.541Z,993.69
2019-03-08T12:23:41.519Z,993.73
2019-03-08T12:24:41.506Z,993.69
2019-03-08T12:25:41.480Z,993.79
2019-03-08T12:26:41.470Z,993.80
2019-03-08T12:27:41.451Z,993.82
2019-03-08T12:28:41.428Z,993.84